sensor_id;sensor_type;location;lat;lon;timestamp;temperature;humidity
46562;DHT22;32289;42.688;23.330;2023-04-08T00:00:48;5.40;99.90
46562;DHT22;32289;42.688;23.330;2023-04-08T00:04:29;5.50;99.90
46562;DHT22;32289;42.688;23.330;2023-04-08T00:08:11;5.50;99.90
46562;DHT22;32289;42.688;23.330;2023-04-08T00:11:52;5.40;99.90
46562;DHT22;32289;42.688;23.330;2023-04-08T00:15:33;5.40;99.90
46562;DHT22;32289;42.688;23.330;2023-04-08T00:19:14;5.40;99.90
46562;DHT22;32289;42.688;23.330;2023-04-08T00:22:55;5.40;99.90
46562;DHT22;32289;42.688;23.330;2023-04-08T00:26:35;5.40;99.90
46562;DHT22;32289;42.688;23.330;2023-04-08T00:30:17;5.30;99.90
46562;DHT22;32289;42.688;23.330;2023-04-08T00:33:57;5.20;99.90
46562;DHT22;32289;42.688;23.330;2023-04-08T00:37:38;5.00;99.90
46562;DHT22;32289;42.688;23.330;2023-04-08T00:41:20;5.00;99.90
46562;DHT22;32289;42.688;23.330;2023-04-08T00:45:00;4.80;99.90
46562;DHT22;32289;42.688;23.330;2023-04-08T00:48:41;4.70;99.90
46562;DHT22;32289;42.688;23.330;2023-04-08T00:52:22;4.80;99.90
46562;DHT22;32289;42.688;23.330;2023-04-08T00:56:02;4.70;99.90
46562;DHT22;32289;42.688;23.330;2023-04-08T00:59:43;4.60;99.90
46562;DHT22;32289;42.688;23.330;2023-04-08T01:07:49;4.60;99.90
46562;DHT22;32289;42.688;23.330;2023-04-08T01:11:35;4.60;99.90
46562;DHT22;32289;42.688;23.330;2023-04-08T01:15:18;4.60;99.90
46562;DHT22;32289;42.688;23.330;2023-04-08T01:18:59;4.40;99.90
46562;DHT22;32289;42.688;23.330;2023-04-08T01:26:26;4.60;99.90
46562;DHT22;32289;42.688;23.330;2023-04-08T01:30:08;4.80;99.90
46562;DHT22;32289;42.688;23.330;2023-04-08T01:33:50;4.90;99.90
46562;DHT22;32289;42.688;23.330;2023-04-08T01:37:32;4.90;99.90
46562;DHT22;32289;42.688;23.330;2023-04-08T01:41:13;4.90;99.90
46562;DHT22;32289;42.688;23.330;2023-04-08T01:44:56;5.00;99.90
46562;DHT22;32289;42.688;23.330;2023-04-08T01:48:39;5.10;99.90
46562;DHT22;32289;42.688;23.330;2023-04-08T01:52:21;5.00;99.90
46562;DHT22;32289;42.688;23.330;2023-04-08T01:56:06;4.90;99.90
46562;DHT22;32289;42.688;23.330;2023-04-08T01:59:51;4.70;99.90
46562;DHT22;32289;42.688;23.330;2023-04-08T02:03:33;4.60;99.90
46562;DHT22;32289;42.688;23.330;2023-04-08T02:07:15;4.60;99.90
46562;DHT22;32289;42.688;23.330;2023-04-08T02:10:56;4.50;99.90
46562;DHT22;32289;42.688;23.330;2023-04-08T02:14:37;4.60;99.90
46562;DHT22;32289;42.688;23.330;2023-04-08T02:18:25;4.60;99.90
46562;DHT22;32289;42.688;23.330;2023-04-08T02:22:17;4.60;99.90
46562;DHT22;32289;42.688;23.330;2023-04-08T02:25:58;4.60;99.90
46562;DHT22;32289;42.688;23.330;2023-04-08T02:29:41;4.60;99.90
46562;DHT22;32289;42.688;23.330;2023-04-08T02:33:22;4.60;99.90
46562;DHT22;32289;42.688;23.330;2023-04-08T02:37:03;4.50;99.90
46562;DHT22;32289;42.688;23.330;2023-04-08T02:40:48;4.40;99.90
46562;DHT22;32289;42.688;23.330;2023-04-08T02:44:30;4.50;99.90
46562;DHT22;32289;42.688;23.330;2023-04-08T02:48:11;4.50;99.90
46562;DHT22;32289;42.688;23.330;2023-04-08T02:51:51;4.40;99.90
46562;DHT22;32289;42.688;23.330;2023-04-08T02:55:35;4.40;99.90
46562;DHT22;32289;42.688;23.330;2023-04-08T02:59:17;4.50;99.90
46562;DHT22;32289;42.688;23.330;2023-04-08T03:02:58;4.50;99.90
46562;DHT22;32289;42.688;23.330;2023-04-08T03:06:38;4.50;99.90
46562;DHT22;32289;42.688;23.330;2023-04-08T03:10:19;4.40;99.90
46562;DHT22;32289;42.688;23.330;2023-04-08T03:14:00;4.50;99.90
46562;DHT22;32289;42.688;23.330;2023-04-08T03:17:41;4.40;99.90
46562;DHT22;32289;42.688;23.330;2023-04-08T03:21:22;4.70;99.90
46562;DHT22;32289;42.688;23.330;2023-04-08T03:25:02;4.40;99.90
46562;DHT22;32289;42.688;23.330;2023-04-08T03:28:43;4.50;99.90
46562;DHT22;32289;42.688;23.330;2023-04-08T03:32:24;4.60;99.90
46562;DHT22;32289;42.688;23.330;2023-04-08T03:36:05;4.60;99.90
46562;DHT22;32289;42.688;23.330;2023-04-08T03:39:46;4.40;99.90
46562;DHT22;32289;42.688;23.330;2023-04-08T03:43:27;4.50;99.90
46562;DHT22;32289;42.688;23.330;2023-04-08T03:47:09;4.60;99.90
46562;DHT22;32289;42.688;23.330;2023-04-08T03:50:49;4.50;99.90
46562;DHT22;32289;42.688;23.330;2023-04-08T03:54:30;4.50;99.90
46562;DHT22;32289;42.688;23.330;2023-04-08T03:58:11;4.40;99.90
46562;DHT22;32289;42.688;23.330;2023-04-08T04:01:52;4.50;99.90
46562;DHT22;32289;42.688;23.330;2023-04-08T04:05:33;4.40;99.90
46562;DHT22;32289;42.688;23.330;2023-04-08T04:09:13;4.50;99.90
46562;DHT22;32289;42.688;23.330;2023-04-08T04:12:56;4.50;99.90
46562;DHT22;32289;42.688;23.330;2023-04-08T04:16:36;4.50;99.90
46562;DHT22;32289;42.688;23.330;2023-04-08T04:20:18;4.50;99.90
46562;DHT22;32289;42.688;23.330;2023-04-08T04:23:59;4.40;99.90
46562;DHT22;32289;42.688;23.330;2023-04-08T04:27:42;4.30;99.90
46562;DHT22;32289;42.688;23.330;2023-04-08T04:31:23;4.40;99.90
46562;DHT22;32289;42.688;23.330;2023-04-08T04:35:09;4.40;99.90
46562;DHT22;32289;42.688;23.330;2023-04-08T04:38:49;4.60;99.90
46562;DHT22;32289;42.688;23.330;2023-04-08T04:42:31;5.70;99.90
46562;DHT22;32289;42.688;23.330;2023-04-08T04:46:12;5.20;99.90
46562;DHT22;32289;42.688;23.330;2023-04-08T04:49:53;4.70;99.90
46562;DHT22;32289;42.688;23.330;2023-04-08T04:53:33;4.70;99.90
46562;DHT22;32289;42.688;23.330;2023-04-08T04:57:14;4.80;99.90
46562;DHT22;32289;42.688;23.330;2023-04-08T05:00:55;5.00;99.90
46562;DHT22;32289;42.688;23.330;2023-04-08T05:04:36;4.80;99.90
46562;DHT22;32289;42.688;23.330;2023-04-08T05:08:17;4.90;99.90
46562;DHT22;32289;42.688;23.330;2023-04-08T05:11:58;4.90;99.90
46562;DHT22;32289;42.688;23.330;2023-04-08T05:15:38;5.10;99.90
46562;DHT22;32289;42.688;23.330;2023-04-08T05:19:19;5.20;99.90
46562;DHT22;32289;42.688;23.330;2023-04-08T05:23:00;5.10;99.90
46562;DHT22;32289;42.688;23.330;2023-04-08T05:26:43;5.30;99.90
46562;DHT22;32289;42.688;23.330;2023-04-08T05:30:23;4.90;99.90
46562;DHT22;32289;42.688;23.330;2023-04-08T05:34:04;4.80;99.90
46562;DHT22;32289;42.688;23.330;2023-04-08T05:37:45;4.90;99.90
46562;DHT22;32289;42.688;23.330;2023-04-08T05:41:26;4.90;99.90
46562;DHT22;32289;42.688;23.330;2023-04-08T05:45:07;5.20;99.90
46562;DHT22;32289;42.688;23.330;2023-04-08T05:48:48;5.30;99.90
46562;DHT22;32289;42.688;23.330;2023-04-08T05:52:28;5.50;99.90
46562;DHT22;32289;42.688;23.330;2023-04-08T05:56:09;5.60;99.90
46562;DHT22;32289;42.688;23.330;2023-04-08T05:59:50;6.00;99.90
46562;DHT22;32289;42.688;23.330;2023-04-08T06:03:32;6.00;99.90
46562;DHT22;32289;42.688;23.330;2023-04-08T06:07:13;6.10;99.90
46562;DHT22;32289;42.688;23.330;2023-04-08T06:10:54;6.00;99.90
46562;DHT22;32289;42.688;23.330;2023-04-08T06:14:35;6.00;99.90
46562;DHT22;32289;42.688;23.330;2023-04-08T06:18:16;5.90;99.90
46562;DHT22;32289;42.688;23.330;2023-04-08T06:21:57;6.20;99.90
46562;DHT22;32289;42.688;23.330;2023-04-08T06:25:45;5.90;99.90
46562;DHT22;32289;42.688;23.330;2023-04-08T06:29:27;6.50;99.90
46562;DHT22;32289;42.688;23.330;2023-04-08T06:33:09;6.30;99.90
46562;DHT22;32289;42.688;23.330;2023-04-08T06:36:53;6.40;99.90
46562;DHT22;32289;42.688;23.330;2023-04-08T06:40:34;6.80;99.90
46562;DHT22;32289;42.688;23.330;2023-04-08T06:44:14;6.80;99.90
46562;DHT22;32289;42.688;23.330;2023-04-08T06:47:55;6.80;99.90
46562;DHT22;32289;42.688;23.330;2023-04-08T06:51:36;6.70;99.90
46562;DHT22;32289;42.688;23.330;2023-04-08T06:55:16;6.70;99.90
46562;DHT22;32289;42.688;23.330;2023-04-08T06:58:57;6.80;99.90
46562;DHT22;32289;42.688;23.330;2023-04-08T07:02:39;6.90;99.90
46562;DHT22;32289;42.688;23.330;2023-04-08T07:06:20;7.00;99.90
46562;DHT22;32289;42.688;23.330;2023-04-08T07:10:01;7.20;99.90
46562;DHT22;32289;42.688;23.330;2023-04-08T07:13:42;7.10;99.90
46562;DHT22;32289;42.688;23.330;2023-04-08T07:17:23;7.00;99.90
46562;DHT22;32289;42.688;23.330;2023-04-08T07:21:03;6.90;99.90
46562;DHT22;32289;42.688;23.330;2023-04-08T07:24:44;7.10;99.90
46562;DHT22;32289;42.688;23.330;2023-04-08T07:28:29;7.00;99.90
46562;DHT22;32289;42.688;23.330;2023-04-08T07:32:09;7.40;99.90
46562;DHT22;32289;42.688;23.330;2023-04-08T07:35:50;7.50;99.90
46562;DHT22;32289;42.688;23.330;2023-04-08T07:39:31;7.50;99.90
46562;DHT22;32289;42.688;23.330;2023-04-08T07:43:12;8.00;99.90
46562;DHT22;32289;42.688;23.330;2023-04-08T07:46:52;8.00;99.90
46562;DHT22;32289;42.688;23.330;2023-04-08T07:50:35;8.40;99.90
46562;DHT22;32289;42.688;23.330;2023-04-08T07:54:17;8.40;99.90
46562;DHT22;32289;42.688;23.330;2023-04-08T07:57:57;8.60;99.10
46562;DHT22;32289;42.688;23.330;2023-04-08T08:01:38;8.70;99.90
46562;DHT22;32289;42.688;23.330;2023-04-08T08:05:19;9.00;98.80
46562;DHT22;32289;42.688;23.330;2023-04-08T08:09:00;9.20;98.50
46562;DHT22;32289;42.688;23.330;2023-04-08T08:12:40;10.00;96.50
46562;DHT22;32289;42.688;23.330;2023-04-08T08:16:21;10.50;92.90
46562;DHT22;32289;42.688;23.330;2023-04-08T08:20:02;10.50;91.70
46562;DHT22;32289;42.688;23.330;2023-04-08T08:23:44;10.60;89.60
46562;DHT22;32289;42.688;23.330;2023-04-08T08:27:24;10.30;91.40
46562;DHT22;32289;42.688;23.330;2023-04-08T08:31:06;10.40;91.40
46562;DHT22;32289;42.688;23.330;2023-04-08T08:34:47;9.40;95.00
46562;DHT22;32289;42.688;23.330;2023-04-08T08:38:28;9.60;95.40
46562;DHT22;32289;42.688;23.330;2023-04-08T08:42:22;9.40;96.00
46562;DHT22;32289;42.688;23.330;2023-04-08T08:46:03;9.50;95.90
46562;DHT22;32289;42.688;23.330;2023-04-08T08:49:44;9.60;94.80
46562;DHT22;32289;42.688;23.330;2023-04-08T08:53:28;9.60;95.90
46562;DHT22;32289;42.688;23.330;2023-04-08T08:57:17;9.60;95.10
46562;DHT22;32289;42.688;23.330;2023-04-08T09:00:58;9.00;97.40
46562;DHT22;32289;42.688;23.330;2023-04-08T09:04:58;9.30;97.30
46562;DHT22;32289;42.688;23.330;2023-04-08T09:08:39;9.10;98.40
46562;DHT22;32289;42.688;23.330;2023-04-08T09:12:22;9.20;97.80
46562;DHT22;32289;42.688;23.330;2023-04-08T09:16:06;8.80;98.40
46562;DHT22;32289;42.688;23.330;2023-04-08T09:20:06;9.10;97.90
46562;DHT22;32289;42.688;23.330;2023-04-08T09:23:50;9.60;97.10
46562;DHT22;32289;42.688;23.330;2023-04-08T09:27:34;9.80;96.10
46562;DHT22;32289;42.688;23.330;2023-04-08T09:31:23;9.90;96.20
46562;DHT22;32289;42.688;23.330;2023-04-08T09:35:05;10.30;92.90
46562;DHT22;32289;42.688;23.330;2023-04-08T09:38:46;10.10;91.40
46562;DHT22;32289;42.688;23.330;2023-04-08T09:42:27;10.40;90.30
46562;DHT22;32289;42.688;23.330;2023-04-08T09:46:10;11.10;87.90
46562;DHT22;32289;42.688;23.330;2023-04-08T09:50:00;10.40;90.10
46562;DHT22;32289;42.688;23.330;2023-04-08T09:53:53;11.30;83.70
46562;DHT22;32289;42.688;23.330;2023-04-08T10:01:41;12.30;78.60
46562;DHT22;32289;42.688;23.330;2023-04-08T10:05:24;12.40;72.80
46562;DHT22;32289;42.688;23.330;2023-04-08T10:09:07;11.60;75.50
46562;DHT22;32289;42.688;23.330;2023-04-08T10:12:49;12.20;76.30
46562;DHT22;32289;42.688;23.330;2023-04-08T10:16:30;12.90;70.80
46562;DHT22;32289;42.688;23.330;2023-04-08T10:24:13;12.10;73.50
46562;DHT22;32289;42.688;23.330;2023-04-08T10:27:54;12.30;74.00
46562;DHT22;32289;42.688;23.330;2023-04-08T10:31:39;11.20;77.00
46562;DHT22;32289;42.688;23.330;2023-04-08T10:35:35;11.30;79.00
46562;DHT22;32289;42.688;23.330;2023-04-08T10:39:16;11.70;76.60
46562;DHT22;32289;42.688;23.330;2023-04-08T10:42:58;11.80;72.60
46562;DHT22;32289;42.688;23.330;2023-04-08T10:46:39;11.80;74.20
46562;DHT22;32289;42.688;23.330;2023-04-08T10:50:21;11.10;75.70
46562;DHT22;32289;42.688;23.330;2023-04-08T10:54:16;11.20;77.30
46562;DHT22;32289;42.688;23.330;2023-04-08T10:58:07;11.20;77.90
46562;DHT22;32289;42.688;23.330;2023-04-08T11:01:48;11.60;75.40
46562;DHT22;32289;42.688;23.330;2023-04-08T11:05:29;11.70;74.80
46562;DHT22;32289;42.688;23.330;2023-04-08T11:09:10;11.70;73.90
46562;DHT22;32289;42.688;23.330;2023-04-08T11:12:53;11.30;74.80
46562;DHT22;32289;42.688;23.330;2023-04-08T11:16:35;11.60;73.90
46562;DHT22;32289;42.688;23.330;2023-04-08T11:20:16;11.40;72.70
46562;DHT22;32289;42.688;23.330;2023-04-08T11:23:57;10.90;74.50
46562;DHT22;32289;42.688;23.330;2023-04-08T11:27:38;11.30;76.90
46562;DHT22;32289;42.688;23.330;2023-04-08T11:31:20;11.30;72.20
46562;DHT22;32289;42.688;23.330;2023-04-08T11:35:04;11.80;70.60
46562;DHT22;32289;42.688;23.330;2023-04-08T11:38:45;12.00;69.40
46562;DHT22;32289;42.688;23.330;2023-04-08T11:42:28;12.60;66.00
46562;DHT22;32289;42.688;23.330;2023-04-08T11:46:10;12.10;67.50
46562;DHT22;32289;42.688;23.330;2023-04-08T11:49:51;12.60;67.60
46562;DHT22;32289;42.688;23.330;2023-04-08T11:53:32;12.50;67.20
46562;DHT22;32289;42.688;23.330;2023-04-08T11:57:13;12.90;64.40
46562;DHT22;32289;42.688;23.330;2023-04-08T12:00:54;13.10;64.60
46562;DHT22;32289;42.688;23.330;2023-04-08T12:04:35;12.90;62.60
46562;DHT22;32289;42.688;23.330;2023-04-08T12:08:16;12.90;63.10
46562;DHT22;32289;42.688;23.330;2023-04-08T12:11:57;12.50;64.60
46562;DHT22;32289;42.688;23.330;2023-04-08T12:15:38;12.00;66.20
46562;DHT22;32289;42.688;23.330;2023-04-08T12:19:20;12.00;66.90
46562;DHT22;32289;42.688;23.330;2023-04-08T12:23:00;11.70;67.40
46562;DHT22;32289;42.688;23.330;2023-04-08T12:26:41;11.30;67.50
46562;DHT22;32289;42.688;23.330;2023-04-08T12:30:22;11.50;68.20
46562;DHT22;32289;42.688;23.330;2023-04-08T12:34:02;11.20;67.90
46562;DHT22;32289;42.688;23.330;2023-04-08T12:37:43;11.10;70.10
46562;DHT22;32289;42.688;23.330;2023-04-08T12:41:25;10.70;70.40
46562;DHT22;32289;42.688;23.330;2023-04-08T12:45:06;11.30;70.20
46562;DHT22;32289;42.688;23.330;2023-04-08T12:48:47;11.30;69.70
46562;DHT22;32289;42.688;23.330;2023-04-08T12:52:29;11.50;69.30
46562;DHT22;32289;42.688;23.330;2023-04-08T12:56:09;11.40;68.90
46562;DHT22;32289;42.688;23.330;2023-04-08T12:59:50;11.20;71.50
46562;DHT22;32289;42.688;23.330;2023-04-08T13:03:31;11.10;73.40
46562;DHT22;32289;42.688;23.330;2023-04-08T13:07:11;11.00;73.30
46562;DHT22;32289;42.688;23.330;2023-04-08T13:10:52;11.00;74.00
46562;DHT22;32289;42.688;23.330;2023-04-08T13:14:34;11.30;73.00
46562;DHT22;32289;42.688;23.330;2023-04-08T13:18:15;10.70;75.10
46562;DHT22;32289;42.688;23.330;2023-04-08T13:21:56;10.70;75.90
46562;DHT22;32289;42.688;23.330;2023-04-08T13:25:37;10.90;74.80
46562;DHT22;32289;42.688;23.330;2023-04-08T13:29:17;11.10;74.40
46562;DHT22;32289;42.688;23.330;2023-04-08T13:32:58;11.20;74.00
46562;DHT22;32289;42.688;23.330;2023-04-08T13:36:39;10.80;78.40
46562;DHT22;32289;42.688;23.330;2023-04-08T13:40:20;10.80;80.20
46562;DHT22;32289;42.688;23.330;2023-04-08T13:44:00;10.50;81.80
46562;DHT22;32289;42.688;23.330;2023-04-08T13:47:41;10.60;78.80
46562;DHT22;32289;42.688;23.330;2023-04-08T13:51:22;10.50;79.10
46562;DHT22;32289;42.688;23.330;2023-04-08T13:55:03;11.00;78.10
46562;DHT22;32289;42.688;23.330;2023-04-08T13:58:44;10.80;78.10
46562;DHT22;32289;42.688;23.330;2023-04-08T14:02:24;11.30;75.90
46562;DHT22;32289;42.688;23.330;2023-04-08T14:06:05;11.60;76.10
46562;DHT22;32289;42.688;23.330;2023-04-08T14:09:46;11.70;76.80
46562;DHT22;32289;42.688;23.330;2023-04-08T14:13:27;11.70;82.80
46562;DHT22;32289;42.688;23.330;2023-04-08T14:17:07;11.00;96.10
46562;DHT22;32289;42.688;23.330;2023-04-08T14:20:48;10.60;98.90
46562;DHT22;32289;42.688;23.330;2023-04-08T14:24:29;10.10;99.90
46562;DHT22;32289;42.688;23.330;2023-04-08T14:28:09;10.30;99.90
46562;DHT22;32289;42.688;23.330;2023-04-08T14:31:50;10.40;99.90
46562;DHT22;32289;42.688;23.330;2023-04-08T14:35:31;10.40;99.90
46562;DHT22;32289;42.688;23.330;2023-04-08T14:39:12;10.40;99.90
46562;DHT22;32289;42.688;23.330;2023-04-08T14:42:53;10.60;99.90
46562;DHT22;32289;42.688;23.330;2023-04-08T14:46:33;10.70;99.90
46562;DHT22;32289;42.688;23.330;2023-04-08T14:50:14;10.40;99.90
46562;DHT22;32289;42.688;23.330;2023-04-08T14:53:55;10.40;99.90
46562;DHT22;32289;42.688;23.330;2023-04-08T14:57:36;10.20;99.90
46562;DHT22;32289;42.688;23.330;2023-04-08T15:01:18;10.20;99.90
46562;DHT22;32289;42.688;23.330;2023-04-08T15:04:58;10.40;99.90
46562;DHT22;32289;42.688;23.330;2023-04-08T15:08:39;10.60;99.20
46562;DHT22;32289;42.688;23.330;2023-04-08T15:12:20;10.30;98.80
46562;DHT22;32289;42.688;23.330;2023-04-08T15:16:00;10.30;99.30
46562;DHT22;32289;42.688;23.330;2023-04-08T15:19:41;10.20;99.00
46562;DHT22;32289;42.688;23.330;2023-04-08T15:23:22;10.20;99.40
46562;DHT22;32289;42.688;23.330;2023-04-08T15:27:03;10.10;99.90
46562;DHT22;32289;42.688;23.330;2023-04-08T15:30:44;10.00;99.90
46562;DHT22;32289;42.688;23.330;2023-04-08T15:34:26;10.00;99.90
46562;DHT22;32289;42.688;23.330;2023-04-08T15:38:07;10.00;99.90
46562;DHT22;32289;42.688;23.330;2023-04-08T15:41:48;9.70;99.90
46562;DHT22;32289;42.688;23.330;2023-04-08T15:45:29;9.70;99.90
46562;DHT22;32289;42.688;23.330;2023-04-08T15:49:10;9.80;99.90
46562;DHT22;32289;42.688;23.330;2023-04-08T15:52:50;10.00;99.90
46562;DHT22;32289;42.688;23.330;2023-04-08T15:56:31;9.90;99.90
46562;DHT22;32289;42.688;23.330;2023-04-08T16:00:13;9.90;99.90
46562;DHT22;32289;42.688;23.330;2023-04-08T16:03:54;10.00;99.90
46562;DHT22;32289;42.688;23.330;2023-04-08T16:07:35;9.80;99.90
46562;DHT22;32289;42.688;23.330;2023-04-08T16:11:16;9.80;99.90
46562;DHT22;32289;42.688;23.330;2023-04-08T16:14:57;9.70;99.90
46562;DHT22;32289;42.688;23.330;2023-04-08T16:18:38;9.70;99.90
46562;DHT22;32289;42.688;23.330;2023-04-08T16:22:20;9.70;99.90
46562;DHT22;32289;42.688;23.330;2023-04-08T16:26:01;9.60;99.90
46562;DHT22;32289;42.688;23.330;2023-04-08T16:29:42;9.60;99.90
46562;DHT22;32289;42.688;23.330;2023-04-08T16:33:23;9.50;99.90
46562;DHT22;32289;42.688;23.330;2023-04-08T16:37:09;9.50;99.90
46562;DHT22;32289;42.688;23.330;2023-04-08T16:40:50;9.10;99.90
46562;DHT22;32289;42.688;23.330;2023-04-08T16:44:31;9.00;99.90
46562;DHT22;32289;42.688;23.330;2023-04-08T16:48:12;8.50;99.90
46562;DHT22;32289;42.688;23.330;2023-04-08T16:51:53;8.70;99.90
46562;DHT22;32289;42.688;23.330;2023-04-08T16:55:34;8.90;99.90
46562;DHT22;32289;42.688;23.330;2023-04-08T16:59:15;9.00;99.90
46562;DHT22;32289;42.688;23.330;2023-04-08T17:02:56;8.70;99.90
46562;DHT22;32289;42.688;23.330;2023-04-08T17:06:39;8.80;99.90
46562;DHT22;32289;42.688;23.330;2023-04-08T17:10:21;8.80;99.90
46562;DHT22;32289;42.688;23.330;2023-04-08T17:14:02;9.00;99.90
46562;DHT22;32289;42.688;23.330;2023-04-08T17:17:43;9.20;99.90
46562;DHT22;32289;42.688;23.330;2023-04-08T17:21:23;9.20;99.90
46562;DHT22;32289;42.688;23.330;2023-04-08T17:25:04;9.00;99.90
46562;DHT22;32289;42.688;23.330;2023-04-08T17:28:45;8.80;99.90
46562;DHT22;32289;42.688;23.330;2023-04-08T17:32:26;8.80;99.90
46562;DHT22;32289;42.688;23.330;2023-04-08T17:36:07;8.70;99.90
46562;DHT22;32289;42.688;23.330;2023-04-08T17:39:47;8.70;99.90
46562;DHT22;32289;42.688;23.330;2023-04-08T17:43:28;8.50;99.90
46562;DHT22;32289;42.688;23.330;2023-04-08T17:47:09;8.40;99.90
46562;DHT22;32289;42.688;23.330;2023-04-08T17:50:58;8.30;99.90
46562;DHT22;32289;42.688;23.330;2023-04-08T17:54:39;8.60;99.90
46562;DHT22;32289;42.688;23.330;2023-04-08T17:58:21;8.40;99.90
46562;DHT22;32289;42.688;23.330;2023-04-08T18:02:02;8.30;99.90
46562;DHT22;32289;42.688;23.330;2023-04-08T18:05:43;8.10;99.90
46562;DHT22;32289;42.688;23.330;2023-04-08T18:09:23;7.90;99.90
46562;DHT22;32289;42.688;23.330;2023-04-08T18:13:04;8.00;99.90
46562;DHT22;32289;42.688;23.330;2023-04-08T18:16:45;8.00;99.90
46562;DHT22;32289;42.688;23.330;2023-04-08T18:20:25;7.80;99.90
46562;DHT22;32289;42.688;23.330;2023-04-08T18:24:06;7.90;99.90
46562;DHT22;32289;42.688;23.330;2023-04-08T18:27:48;7.90;99.90
46562;DHT22;32289;42.688;23.330;2023-04-08T18:31:28;7.90;99.90
46562;DHT22;32289;42.688;23.330;2023-04-08T18:35:09;7.90;99.90
46562;DHT22;32289;42.688;23.330;2023-04-08T18:38:50;7.90;99.90
46562;DHT22;32289;42.688;23.330;2023-04-08T18:42:30;7.90;99.90
46562;DHT22;32289;42.688;23.330;2023-04-08T18:46:11;7.80;99.90
46562;DHT22;32289;42.688;23.330;2023-04-08T18:49:52;7.70;99.90
46562;DHT22;32289;42.688;23.330;2023-04-08T18:53:33;7.70;99.90
46562;DHT22;32289;42.688;23.330;2023-04-08T18:57:13;7.60;99.90
46562;DHT22;32289;42.688;23.330;2023-04-08T19:00:54;7.50;99.90
46562;DHT22;32289;42.688;23.330;2023-04-08T19:04:35;7.50;99.90
46562;DHT22;32289;42.688;23.330;2023-04-08T19:08:17;7.50;99.90
46562;DHT22;32289;42.688;23.330;2023-04-08T19:11:58;7.50;99.90
46562;DHT22;32289;42.688;23.330;2023-04-08T19:15:39;7.50;99.90
46562;DHT22;32289;42.688;23.330;2023-04-08T19:19:19;7.50;99.90
46562;DHT22;32289;42.688;23.330;2023-04-08T19:23:00;7.40;99.90
46562;DHT22;32289;42.688;23.330;2023-04-08T19:26:41;7.40;99.90
46562;DHT22;32289;42.688;23.330;2023-04-08T19:30:21;7.40;99.90
46562;DHT22;32289;42.688;23.330;2023-04-08T19:34:02;7.20;99.90
46562;DHT22;32289;42.688;23.330;2023-04-08T19:37:43;7.10;99.90
46562;DHT22;32289;42.688;23.330;2023-04-08T19:41:23;7.20;99.90
46562;DHT22;32289;42.688;23.330;2023-04-08T19:45:05;7.20;99.90
46562;DHT22;32289;42.688;23.330;2023-04-08T19:48:46;7.30;99.90
46562;DHT22;32289;42.688;23.330;2023-04-08T19:52:27;7.10;99.90
46562;DHT22;32289;42.688;23.330;2023-04-08T19:56:07;7.10;99.90
46562;DHT22;32289;42.688;23.330;2023-04-08T19:59:51;7.20;99.90
46562;DHT22;32289;42.688;23.330;2023-04-08T20:03:32;7.10;99.90
46562;DHT22;32289;42.688;23.330;2023-04-08T20:07:12;7.10;99.90
46562;DHT22;32289;42.688;23.330;2023-04-08T20:10:53;7.30;99.90
46562;DHT22;32289;42.688;23.330;2023-04-08T20:14:35;7.10;99.90
46562;DHT22;32289;42.688;23.330;2023-04-08T20:18:18;7.10;99.90
46562;DHT22;32289;42.688;23.330;2023-04-08T20:21:58;7.10;99.90
46562;DHT22;32289;42.688;23.330;2023-04-08T20:25:39;7.20;99.90
46562;DHT22;32289;42.688;23.330;2023-04-08T20:29:20;7.20;99.90
46562;DHT22;32289;42.688;23.330;2023-04-08T20:33:01;7.20;99.90
46562;DHT22;32289;42.688;23.330;2023-04-08T20:36:41;7.30;99.90
46562;DHT22;32289;42.688;23.330;2023-04-08T20:40:23;7.50;99.90
46562;DHT22;32289;42.688;23.330;2023-04-08T20:44:03;7.20;99.90
46562;DHT22;32289;42.688;23.330;2023-04-08T20:47:46;7.30;99.90
46562;DHT22;32289;42.688;23.330;2023-04-08T20:51:26;7.30;99.90
46562;DHT22;32289;42.688;23.330;2023-04-08T20:55:08;7.20;99.90
46562;DHT22;32289;42.688;23.330;2023-04-08T20:58:48;7.20;99.90
46562;DHT22;32289;42.688;23.330;2023-04-08T21:02:29;7.10;99.90
46562;DHT22;32289;42.688;23.330;2023-04-08T21:06:20;7.00;99.90
46562;DHT22;32289;42.688;23.330;2023-04-08T21:10:01;7.10;99.90
46562;DHT22;32289;42.688;23.330;2023-04-08T21:13:42;7.10;99.90
46562;DHT22;32289;42.688;23.330;2023-04-08T21:17:22;6.90;99.90
46562;DHT22;32289;42.688;23.330;2023-04-08T21:21:03;6.60;99.90
46562;DHT22;32289;42.688;23.330;2023-04-08T21:24:44;6.70;99.90
46562;DHT22;32289;42.688;23.330;2023-04-08T21:28:25;6.80;99.90
46562;DHT22;32289;42.688;23.330;2023-04-08T21:32:06;6.90;99.90
46562;DHT22;32289;42.688;23.330;2023-04-08T21:35:46;7.00;99.90
46562;DHT22;32289;42.688;23.330;2023-04-08T21:39:27;7.00;99.90
46562;DHT22;32289;42.688;23.330;2023-04-08T21:43:08;6.90;99.90
46562;DHT22;32289;42.688;23.330;2023-04-08T21:46:48;6.70;99.90
46562;DHT22;32289;42.688;23.330;2023-04-08T21:50:29;6.50;99.90
46562;DHT22;32289;42.688;23.330;2023-04-08T21:54:10;6.60;99.90
46562;DHT22;32289;42.688;23.330;2023-04-08T21:57:52;6.50;99.90
46562;DHT22;32289;42.688;23.330;2023-04-08T22:01:32;6.50;99.90
46562;DHT22;32289;42.688;23.330;2023-04-08T22:05:13;6.50;99.90
46562;DHT22;32289;42.688;23.330;2023-04-08T22:08:54;6.40;99.90
46562;DHT22;32289;42.688;23.330;2023-04-08T22:12:34;6.40;99.90
46562;DHT22;32289;42.688;23.330;2023-04-08T22:16:15;6.40;99.90
46562;DHT22;32289;42.688;23.330;2023-04-08T22:19:56;6.30;99.90
46562;DHT22;32289;42.688;23.330;2023-04-08T22:23:36;6.20;99.90
46562;DHT22;32289;42.688;23.330;2023-04-08T22:27:18;6.20;99.90
46562;DHT22;32289;42.688;23.330;2023-04-08T22:30:59;6.20;99.90
46562;DHT22;32289;42.688;23.330;2023-04-08T22:34:40;6.10;99.90
46562;DHT22;32289;42.688;23.330;2023-04-08T22:38:21;6.30;99.90
46562;DHT22;32289;42.688;23.330;2023-04-08T22:42:01;6.40;99.90
46562;DHT22;32289;42.688;23.330;2023-04-08T22:45:42;6.10;99.90
46562;DHT22;32289;42.688;23.330;2023-04-08T22:49:23;6.00;99.90
46562;DHT22;32289;42.688;23.330;2023-04-08T22:53:03;6.10;99.90
46562;DHT22;32289;42.688;23.330;2023-04-08T22:56:44;6.10;99.90
46562;DHT22;32289;42.688;23.330;2023-04-08T23:00:25;6.00;99.90
46562;DHT22;32289;42.688;23.330;2023-04-08T23:04:06;6.00;99.90
46562;DHT22;32289;42.688;23.330;2023-04-08T23:07:46;6.00;99.90
46562;DHT22;32289;42.688;23.330;2023-04-08T23:11:27;5.90;99.90
46562;DHT22;32289;42.688;23.330;2023-04-08T23:15:08;6.00;99.90
46562;DHT22;32289;42.688;23.330;2023-04-08T23:18:49;6.10;99.90
46562;DHT22;32289;42.688;23.330;2023-04-08T23:22:29;5.90;99.90
46562;DHT22;32289;42.688;23.330;2023-04-08T23:26:19;5.90;99.90
46562;DHT22;32289;42.688;23.330;2023-04-08T23:30:01;5.80;99.90